createdAt,value
2023-05-13T00:00:26.056Z,13.36
2023-05-13T00:02:52.712Z,13.24
2023-05-13T00:05:19.580Z,13.20
2023-05-13T00:07:46.168Z,13.18
2023-05-13T00:10:12.804Z,13.18
2023-05-13T00:12:39.558Z,13.02
2023-05-13T00:15:06.580Z,13.15
2023-05-13T00:17:33.308Z,13.12
2023-05-13T00:20:00.016Z,13.15
2023-05-13T00:22:26.937Z,13.16
2023-05-13T00:24:53.564Z,13.08
2023-05-13T00:27:21.543Z,12.80
2023-05-13T00:29:48.153Z,13.10
2023-05-13T00:32:15.632Z,13.02
2023-05-13T00:34:42.230Z,13.08
2023-05-13T00:37:10.440Z,12.89
2023-05-13T00:39:37.117Z,12.69
2023-05-13T00:42:04.994Z,12.87
2023-05-13T00:44:31.706Z,12.96
2023-05-13T00:46:58.345Z,12.88
2023-05-13T00:49:25.119Z,12.95
2023-05-13T00:51:55.112Z,12.46
2023-05-13T00:54:22.245Z,12.88
2023-05-13T00:56:48.979Z,12.83
2023-05-13T00:59:15.725Z,12.80
2023-05-13T01:01:48.252Z,12.83
2023-05-13T01:04:33.376Z,12.80
2023-05-13T01:07:12.754Z,12.75
2023-05-13T01:09:55.238Z,12.66
2023-05-13T01:12:30.702Z,12.67
2023-05-13T01:15:11.182Z,12.58
2023-05-13T01:17:41.470Z,12.68
2023-05-13T01:20:08.609Z,12.61
2023-05-13T01:22:35.231Z,12.54
2023-05-13T01:25:02.137Z,12.60
2023-05-13T01:27:28.901Z,12.53
2023-05-13T01:29:56.187Z,12.54
2023-05-13T01:32:23.703Z,12.56
2023-05-13T01:34:52.508Z,12.53
2023-05-13T01:37:20.983Z,12.38
2023-05-13T01:39:48.034Z,12.47
2023-05-13T01:42:14.912Z,12.37
2023-05-13T01:44:41.623Z,12.39
2023-05-13T01:47:08.311Z,12.11
2023-05-13T01:49:34.975Z,12.11
2023-05-13T01:52:01.564Z,12.32
2023-05-13T01:54:28.251Z,12.30
2023-05-13T01:56:54.972Z,12.29
2023-05-13T01:59:22.084Z,12.29
2023-05-13T02:01:48.708Z,12.22
2023-05-13T02:04:15.757Z,12.21
2023-05-13T02:06:42.370Z,12.21
2023-05-13T02:09:09.044Z,12.06
2023-05-13T02:11:36.645Z,12.23
2023-05-13T02:14:03.653Z,12.03
2023-05-13T02:16:31.314Z,12.11
2023-05-13T02:18:58.053Z,12.14
2023-05-13T02:21:24.860Z,12.14
2023-05-13T02:23:51.466Z,12.16
2023-05-13T02:26:18.327Z,12.09
2023-05-13T02:28:44.910Z,12.00
2023-05-13T02:31:11.634Z,12.11
2023-05-13T02:33:38.264Z,12.04
2023-05-13T02:36:05.084Z,12.06
2023-05-13T02:38:31.930Z,11.89
2023-05-13T02:40:58.535Z,11.95
2023-05-13T02:43:27.520Z,12.00
2023-05-13T02:45:54.406Z,11.80
2023-05-13T02:48:21.198Z,11.94
2023-05-13T02:50:47.747Z,11.95
2023-05-13T02:53:14.293Z,11.91
2023-05-13T02:55:41.066Z,11.93
2023-05-13T02:58:09.443Z,11.90
2023-05-13T03:00:37.816Z,11.70
2023-05-13T03:03:04.682Z,11.83
2023-05-13T03:05:31.332Z,11.81
2023-05-13T03:07:58.376Z,11.76
2023-05-13T03:10:25.082Z,11.60
2023-05-13T03:12:51.699Z,11.72
2023-05-13T03:15:18.287Z,11.74
2023-05-13T03:17:45.022Z,11.64
2023-05-13T03:20:11.973Z,11.72
2023-05-13T03:22:41.474Z,11.71
2023-05-13T03:25:08.340Z,11.52
2023-05-13T03:27:34.940Z,11.73
2023-05-13T03:30:01.812Z,11.57
2023-05-13T03:32:32.031Z,11.61
2023-05-13T03:35:00.846Z,11.67
2023-05-13T03:37:27.752Z,11.19
2023-05-13T03:39:54.592Z,11.58
2023-05-13T03:42:21.443Z,11.44
2023-05-13T03:44:48.056Z,11.54
2023-05-13T03:47:15.017Z,11.42
2023-05-13T03:49:41.580Z,11.46
2023-05-13T03:52:08.265Z,11.49
2023-05-13T03:54:35.756Z,11.25
2023-05-13T03:57:02.483Z,11.50
2023-05-13T03:59:29.096Z,11.52
2023-05-13T04:01:55.978Z,11.48
2023-05-13T04:04:22.684Z,11.48
2023-05-13T04:06:49.388Z,11.54
2023-05-13T04:09:16.156Z,11.53
2023-05-13T04:11:42.827Z,11.62
2023-05-13T04:14:09.877Z,11.55
2023-05-13T04:16:36.603Z,11.56
2023-05-13T04:19:03.359Z,11.58
2023-05-13T04:21:29.978Z,11.56
2023-05-13T04:23:56.912Z,11.80
2023-05-13T04:26:23.543Z,11.68
2023-05-13T04:28:50.134Z,11.92
2023-05-13T04:31:17.070Z,12.33
2023-05-13T04:33:43.844Z,13.04
2023-05-13T04:36:10.394Z,13.66
2023-05-13T04:38:37.211Z,14.07
2023-05-13T04:41:04.019Z,14.63
2023-05-13T04:43:30.660Z,15.17
2023-05-13T04:45:57.320Z,15.66
2023-05-13T04:48:23.998Z,15.98
2023-05-13T04:50:51.095Z,16.40
2023-05-13T04:53:18.178Z,16.68
2023-05-13T04:55:47.410Z,16.93
2023-05-13T04:58:14.231Z,17.28
2023-05-13T05:00:40.866Z,17.49
2023-05-13T05:03:07.553Z,18.10
2023-05-13T05:05:34.296Z,18.52
2023-05-13T05:08:01.040Z,18.43
2023-05-13T05:10:27.758Z,18.51
2023-05-13T05:12:54.364Z,18.97
2023-05-13T05:15:21.073Z,19.06
2023-05-13T05:17:47.872Z,18.99
2023-05-13T05:20:14.608Z,19.26
2023-05-13T05:22:42.335Z,19.56
2023-05-13T05:25:10.174Z,19.64
2023-05-13T05:27:36.749Z,19.80
2023-05-13T05:30:03.853Z,20.12
2023-05-13T05:32:30.634Z,19.99
2023-05-13T05:34:57.345Z,20.43
2023-05-13T05:37:24.282Z,20.78
2023-05-13T05:39:50.918Z,21.01
2023-05-13T05:42:17.558Z,20.89
2023-05-13T05:44:44.148Z,20.36
2023-05-13T05:47:10.940Z,20.50
2023-05-13T05:49:37.757Z,20.79
2023-05-13T05:52:05.348Z,20.87
2023-05-13T05:54:31.906Z,21.06
2023-05-13T05:56:58.511Z,21.16
2023-05-13T05:59:25.452Z,21.08
2023-05-13T06:01:52.043Z,21.30
2023-05-13T06:04:18.775Z,21.66
2023-05-13T06:06:45.650Z,22.12
2023-05-13T06:09:12.353Z,22.60
2023-05-13T06:11:38.978Z,23.00
2023-05-13T06:14:06.449Z,23.37
2023-05-13T06:16:33.195Z,23.38
2023-05-13T06:18:59.962Z,23.47
2023-05-13T06:21:26.822Z,23.49
2023-05-13T06:23:53.394Z,23.72
2023-05-13T06:26:20.172Z,23.96
2023-05-13T06:28:46.841Z,24.10
2023-05-13T06:31:13.503Z,24.43
2023-05-13T06:33:40.076Z,24.62
2023-05-13T06:36:07.143Z,24.80
2023-05-13T06:38:34.654Z,25.06
2023-05-13T06:41:01.377Z,25.44
2023-05-13T06:43:28.033Z,25.85
2023-05-13T06:45:54.644Z,26.04
2023-05-13T06:48:21.212Z,26.32
2023-05-13T06:50:49.796Z,26.78
2023-05-13T06:53:16.477Z,27.02
2023-05-13T06:55:43.241Z,27.20
2023-05-13T06:58:10.549Z,27.44
2023-05-13T07:00:41.118Z,27.54
2023-05-13T07:03:08.500Z,27.96
2023-05-13T07:05:35.991Z,28.00
2023-05-13T07:08:06.802Z,27.97
2023-05-13T07:10:34.294Z,28.05
2023-05-13T07:13:04.489Z,28.05
2023-05-13T07:15:31.239Z,28.06
2023-05-13T07:17:57.890Z,28.08
2023-05-13T07:20:26.522Z,28.65
2023-05-13T07:22:53.333Z,29.13
2023-05-13T07:25:19.922Z,29.18
2023-05-13T07:27:47.882Z,29.29
2023-05-13T07:30:14.686Z,29.50
2023-05-13T07:32:41.485Z,29.42
2023-05-13T07:35:09.355Z,29.90
2023-05-13T07:37:37.110Z,30.25
2023-05-13T07:40:05.929Z,29.97
2023-05-13T07:42:33.185Z,29.60
2023-05-13T07:45:00.104Z,29.62
2023-05-13T07:47:29.160Z,28.98
2023-05-13T07:49:56.050Z,28.40
2023-05-13T07:52:22.752Z,27.89
2023-05-13T07:54:49.468Z,27.30
2023-05-13T07:57:16.180Z,26.74
2023-05-13T07:59:44.666Z,26.35
2023-05-13T08:02:12.624Z,25.63
2023-05-13T08:04:39.425Z,24.81
2023-05-13T08:07:06.180Z,24.30
2023-05-13T08:09:32.773Z,23.89
2023-05-13T08:11:59.403Z,23.35
2023-05-13T08:14:26.031Z,22.75
2023-05-13T08:16:52.986Z,22.56
2023-05-13T08:19:20.271Z,21.73
2023-05-13T08:21:46.898Z,21.73
2023-05-13T08:24:13.504Z,21.58
2023-05-13T08:26:40.232Z,21.43
2023-05-13T08:29:07.236Z,21.35
2023-05-13T08:31:33.941Z,21.30
2023-05-13T08:34:00.575Z,21.23
2023-05-13T08:36:27.252Z,21.29
2023-05-13T08:38:53.865Z,21.31
2023-05-13T08:41:22.768Z,21.47
2023-05-13T08:43:49.954Z,21.46
2023-05-13T08:46:17.133Z,21.49
2023-05-13T08:48:44.723Z,21.34
2023-05-13T08:51:12.577Z,21.23
2023-05-13T08:53:40.321Z,21.30
2023-05-13T08:56:08.524Z,21.35
2023-05-13T08:58:35.276Z,21.41
2023-05-13T09:01:03.403Z,21.26
2023-05-13T09:03:31.588Z,21.13
2023-05-13T09:06:03.359Z,21.01
2023-05-13T09:08:30.289Z,21.03
2023-05-13T09:10:57.938Z,21.03
2023-05-13T09:13:24.525Z,20.98
2023-05-13T09:15:51.878Z,21.05
2023-05-13T09:18:19.384Z,21.00
2023-05-13T09:20:46.431Z,20.83
2023-05-13T09:23:13.892Z,21.04
2023-05-13T09:25:40.706Z,21.01
2023-05-13T09:28:08.393Z,20.96
2023-05-13T09:30:40.172Z,20.95
2023-05-13T09:33:10.924Z,21.10
2023-05-13T09:35:39.736Z,20.98
2023-05-13T09:38:34.811Z,21.19
2023-05-13T09:41:03.235Z,21.14
2023-05-13T09:43:33.428Z,21.50
2023-05-13T09:46:06.565Z,21.57
2023-05-13T09:48:34.332Z,21.67
2023-05-13T09:51:01.153Z,21.81
2023-05-13T09:53:28.541Z,21.97
2023-05-13T09:55:57.425Z,22.14
2023-05-13T09:58:25.795Z,22.09
2023-05-13T10:00:52.818Z,21.94
2023-05-13T10:03:19.729Z,21.52
2023-05-13T10:05:48.815Z,21.55
2023-05-13T10:08:17.565Z,21.75
2023-05-13T10:10:46.209Z,21.73
2023-05-13T10:13:16.005Z,21.85
2023-05-13T10:15:53.551Z,21.83
2023-05-13T10:18:21.675Z,21.90
2023-05-13T10:20:53.758Z,21.89
2023-05-13T10:23:22.686Z,21.91
2023-05-13T10:25:50.858Z,21.93
2023-05-13T10:28:18.008Z,22.07
2023-05-13T10:30:45.079Z,22.07
2023-05-13T10:33:12.231Z,21.99
2023-05-13T10:35:43.313Z,22.00
2023-05-13T10:38:15.707Z,22.00
2023-05-13T10:40:42.379Z,22.06
2023-05-13T10:43:15.341Z,21.87
2023-05-13T10:45:50.345Z,21.89
2023-05-13T10:48:18.607Z,21.90
2023-05-13T10:51:01.696Z,21.99
2023-05-13T10:53:30.654Z,21.83
2023-05-13T10:56:00.084Z,21.94
2023-05-13T10:58:31.308Z,22.10
2023-05-13T11:01:14.636Z,22.25
2023-05-13T11:03:42.043Z,22.28
2023-05-13T11:06:19.551Z,22.31
2023-05-13T11:08:48.406Z,22.28
2023-05-13T11:11:21.367Z,22.30
2023-05-13T11:14:08.647Z,22.34
2023-05-13T11:16:36.326Z,22.26
2023-05-13T11:19:04.600Z,22.20
2023-05-13T11:21:41.148Z,21.92
2023-05-13T11:24:08.227Z,22.21
2023-05-13T11:26:46.559Z,22.31
2023-05-13T11:29:13.700Z,22.35
2023-05-13T11:31:49.968Z,22.42
2023-05-13T11:34:18.451Z,22.51
2023-05-13T11:36:47.777Z,22.40
2023-05-13T11:39:17.006Z,22.34
2023-05-13T11:41:51.161Z,22.47
2023-05-13T11:44:19.948Z,22.43
2023-05-13T11:46:55.625Z,22.48
2023-05-13T11:49:46.748Z,22.62
2023-05-13T11:52:18.750Z,22.58
2023-05-13T11:54:57.463Z,22.34
2023-05-13T11:57:25.473Z,22.57
2023-05-13T11:59:59.519Z,22.67
2023-05-13T12:02:28.417Z,22.80
2023-05-13T12:04:55.597Z,22.88
2023-05-13T12:07:24.698Z,22.85
2023-05-13T12:09:52.370Z,22.86
2023-05-13T12:12:20.298Z,22.85
2023-05-13T12:14:50.274Z,22.70
2023-05-13T12:17:18.125Z,23.00
2023-05-13T12:20:12.811Z,23.08
2023-05-13T12:22:42.523Z,23.12
2023-05-13T12:25:45.280Z,23.24
2023-05-13T12:28:19.827Z,23.40
2023-05-13T12:31:01.465Z,23.36
2023-05-13T12:33:32.290Z,23.30
2023-05-13T12:36:35.854Z,23.20
2023-05-13T12:39:07.057Z,23.12
2023-05-13T12:41:35.693Z,23.10
2023-05-13T12:44:10.239Z,22.96
2023-05-13T12:46:37.728Z,22.87
2023-05-13T12:49:05.980Z,22.94
2023-05-13T12:51:35.690Z,22.92
2023-05-13T12:54:02.425Z,22.67
2023-05-13T12:56:29.081Z,22.70
2023-05-13T12:58:55.963Z,22.70
2023-05-13T13:01:23.061Z,22.44
2023-05-13T13:03:50.180Z,22.51
2023-05-13T13:06:18.409Z,22.64
2023-05-13T13:08:45.107Z,22.78
2023-05-13T13:11:18.274Z,22.84
2023-05-13T13:13:45.911Z,22.88
2023-05-13T13:16:13.388Z,22.93
2023-05-13T13:18:40.785Z,22.88
2023-05-13T13:21:07.731Z,22.77
2023-05-13T13:23:34.561Z,22.78
2023-05-13T13:26:02.027Z,22.61
2023-05-13T13:28:29.102Z,22.72
2023-05-13T13:30:55.751Z,22.72
2023-05-13T13:33:22.466Z,22.67
2023-05-13T13:35:49.503Z,22.73
2023-05-13T13:38:16.273Z,22.51
2023-05-13T13:40:42.920Z,22.75
2023-05-13T13:43:09.641Z,22.68
2023-05-13T13:45:36.665Z,22.49
2023-05-13T13:48:03.516Z,22.75
2023-05-13T13:50:30.294Z,22.69
2023-05-13T13:52:57.020Z,22.76
2023-05-13T13:55:24.287Z,22.85
2023-05-13T13:57:52.154Z,22.77
2023-05-13T14:00:19.567Z,22.95
2023-05-13T14:02:46.541Z,22.94
2023-05-13T14:05:13.725Z,22.80
2023-05-13T14:07:40.506Z,22.88
2023-05-13T14:10:08.551Z,22.84
2023-05-13T14:12:36.408Z,22.72
2023-05-13T14:15:03.302Z,22.69
2023-05-13T14:17:30.024Z,22.71
2023-05-13T14:19:56.654Z,22.47
2023-05-13T14:22:24.207Z,22.23
2023-05-13T14:24:52.244Z,22.40
2023-05-13T14:27:19.578Z,22.34
2023-05-13T14:29:47.781Z,22.29
2023-05-13T14:32:15.025Z,22.10
2023-05-13T14:34:41.921Z,22.25
2023-05-13T14:37:09.056Z,22.31
2023-05-13T14:39:35.908Z,22.29
2023-05-13T14:42:03.702Z,22.30
2023-05-13T14:44:30.563Z,22.16
2023-05-13T14:46:57.308Z,22.09
2023-05-13T14:49:24.116Z,22.13
2023-05-13T14:51:50.859Z,22.15
2023-05-13T14:54:17.857Z,22.22
2023-05-13T14:56:44.928Z,22.10
2023-05-13T14:59:11.644Z,22.00
2023-05-13T15:01:38.564Z,22.17
2023-05-13T15:04:05.620Z,22.13
2023-05-13T15:06:32.721Z,22.19
2023-05-13T15:08:59.495Z,22.06
2023-05-13T15:11:28.180Z,22.13
2023-05-13T15:13:55.566Z,22.07
2023-05-13T15:16:22.706Z,22.06
2023-05-13T15:18:50.352Z,22.00
2023-05-13T15:21:17.566Z,21.94
2023-05-13T15:23:44.339Z,21.94
2023-05-13T15:26:11.021Z,21.91
2023-05-13T15:28:37.953Z,21.93
2023-05-13T15:31:05.491Z,21.79
2023-05-13T15:33:32.673Z,21.89
2023-05-13T15:36:00.057Z,21.70
2023-05-13T15:38:27.560Z,21.75
2023-05-13T15:40:54.329Z,21.61
2023-05-13T15:43:21.166Z,21.89
2023-05-13T15:45:49.754Z,21.88
2023-05-13T15:48:17.505Z,21.97
2023-05-13T15:50:44.391Z,21.97
2023-05-13T15:53:11.157Z,21.75
2023-05-13T15:55:39.366Z,21.80
2023-05-13T15:58:07.080Z,21.76
2023-05-13T16:00:34.143Z,21.70
2023-05-13T16:03:01.743Z,21.53
2023-05-13T16:05:28.552Z,21.51
2023-05-13T16:07:57.147Z,21.42
2023-05-13T16:10:24.042Z,21.31
2023-05-13T16:12:51.672Z,21.28
2023-05-13T16:15:18.379Z,21.37
2023-05-13T16:17:45.087Z,21.28
2023-05-13T16:20:13.567Z,21.26
2023-05-13T16:22:40.424Z,21.27
2023-05-13T16:25:09.027Z,21.18
2023-05-13T16:27:36.880Z,21.18
2023-05-13T16:30:06.242Z,21.15
2023-05-13T16:32:34.885Z,21.15
2023-05-13T16:35:02.126Z,21.00
2023-05-13T16:37:29.237Z,21.01
2023-05-13T16:39:55.804Z,20.85
2023-05-13T16:42:22.644Z,20.79
2023-05-13T16:44:49.393Z,20.70
2023-05-13T16:47:15.995Z,20.63
2023-05-13T16:49:42.785Z,20.63
2023-05-13T16:52:09.488Z,20.52
2023-05-13T16:54:36.172Z,20.61
2023-05-13T16:57:02.835Z,20.59
2023-05-13T16:59:29.578Z,20.37
2023-05-13T17:01:56.354Z,20.43
2023-05-13T17:04:23.031Z,20.37
2023-05-13T17:06:49.765Z,20.40
2023-05-13T17:09:16.464Z,20.21
2023-05-13T17:11:43.308Z,20.27
2023-05-13T17:14:10.218Z,20.36
2023-05-13T17:16:37.112Z,20.38
2023-05-13T17:19:04.165Z,20.30
2023-05-13T17:21:30.894Z,20.20
2023-05-13T17:23:57.498Z,20.10
2023-05-13T17:26:24.106Z,20.08
2023-05-13T17:28:51.199Z,19.96
2023-05-13T17:31:17.980Z,19.93
2023-05-13T17:33:44.637Z,19.83
2023-05-13T17:36:11.471Z,19.74
2023-05-13T17:38:38.160Z,19.69
2023-05-13T17:41:05.036Z,19.55
2023-05-13T17:43:31.643Z,19.50
2023-05-13T17:45:58.453Z,19.45
2023-05-13T17:48:26.650Z,19.27
2023-05-13T17:50:53.550Z,19.03
2023-05-13T17:53:20.796Z,18.97
2023-05-13T17:55:50.680Z,18.91
2023-05-13T17:58:17.413Z,18.75
2023-05-13T18:00:44.021Z,18.70
2023-05-13T18:03:10.927Z,18.50
2023-05-13T18:05:37.788Z,18.50
2023-05-13T18:08:04.657Z,18.32
2023-05-13T18:10:31.534Z,18.19
2023-05-13T18:12:58.143Z,18.05
2023-05-13T18:15:25.733Z,18.01
2023-05-13T18:17:52.477Z,17.84
2023-05-13T18:20:19.426Z,17.68
2023-05-13T18:22:46.110Z,17.72
2023-05-13T18:25:13.225Z,17.68
2023-05-13T18:27:39.936Z,17.60
2023-05-13T18:30:07.418Z,17.54
2023-05-13T18:32:34.146Z,17.38
2023-05-13T18:35:00.777Z,17.27
2023-05-13T18:37:27.375Z,17.23
2023-05-13T18:39:54.080Z,17.04
2023-05-13T18:42:21.303Z,17.00
2023-05-13T18:44:47.906Z,16.98
2023-05-13T18:47:14.481Z,16.89
2023-05-13T18:49:41.107Z,16.81
2023-05-13T18:52:07.933Z,16.77
2023-05-13T18:54:35.623Z,16.68
2023-05-13T18:57:02.236Z,16.54
2023-05-13T18:59:28.961Z,16.63
2023-05-13T19:01:56.155Z,16.55
2023-05-13T19:04:23.183Z,16.44
2023-05-13T19:06:50.227Z,16.16
2023-05-13T19:09:17.003Z,16.29
2023-05-13T19:11:44.226Z,16.12
2023-05-13T19:14:10.888Z,16.17
2023-05-13T19:16:38.056Z,15.97
2023-05-13T19:19:04.829Z,15.96
2023-05-13T19:21:31.664Z,15.78
2023-05-13T19:23:58.769Z,15.77
2023-05-13T19:26:25.639Z,15.67
2023-05-13T19:28:52.457Z,15.65
2023-05-13T19:31:19.122Z,15.47
2023-05-13T19:33:46.378Z,15.57
2023-05-13T19:36:13.201Z,15.50
2023-05-13T19:38:40.009Z,15.29
2023-05-13T19:41:06.729Z,15.32
2023-05-13T19:43:33.399Z,15.16
2023-05-13T19:46:00.107Z,15.16
2023-05-13T19:48:28.360Z,15.13
2023-05-13T19:50:57.905Z,14.82
2023-05-13T19:53:24.665Z,15.03
2023-05-13T19:55:51.324Z,14.90
2023-05-13T19:58:18.105Z,14.83
2023-05-13T20:00:45.279Z,14.74
2023-05-13T20:03:12.158Z,14.65
2023-05-13T20:05:40.928Z,14.57
2023-05-13T20:08:07.765Z,14.63
2023-05-13T20:10:37.224Z,14.57
2023-05-13T20:13:04.844Z,14.42
2023-05-13T20:15:32.007Z,14.51
2023-05-13T20:17:58.870Z,14.33
2023-05-13T20:20:25.757Z,14.38
2023-05-13T20:22:52.570Z,14.28
2023-05-13T20:25:19.461Z,14.23
2023-05-13T20:27:46.145Z,14.30
2023-05-13T20:30:13.394Z,14.34
2023-05-13T20:32:40.261Z,14.27
2023-05-13T20:35:07.744Z,14.36
2023-05-13T20:37:34.852Z,14.38
2023-05-13T20:40:02.383Z,14.22
2023-05-13T20:42:29.049Z,13.90
2023-05-13T20:44:55.967Z,14.21
2023-05-13T20:47:22.769Z,14.22
2023-05-13T20:49:49.489Z,14.25
2023-05-13T20:52:16.485Z,14.12
2023-05-13T20:54:43.149Z,14.19
2023-05-13T20:57:10.000Z,14.12
2023-05-13T20:59:37.418Z,14.05
2023-05-13T21:02:04.197Z,14.06
2023-05-13T21:04:31.109Z,13.99
2023-05-13T21:06:57.928Z,13.90
2023-05-13T21:09:24.578Z,13.65
2023-05-13T21:11:51.168Z,13.88
2023-05-13T21:14:17.821Z,13.80
2023-05-13T21:16:44.459Z,13.75
2023-05-13T21:19:31.432Z,13.36
2023-05-13T21:21:58.677Z,13.65
2023-05-13T21:24:25.407Z,13.71
2023-05-13T21:26:52.274Z,13.48
2023-05-13T21:29:19.187Z,13.48
2023-05-13T21:31:47.450Z,13.55
2023-05-13T21:34:14.242Z,13.47
2023-05-13T21:36:41.036Z,13.51
2023-05-13T21:39:08.088Z,13.46
2023-05-13T21:41:35.559Z,13.43
2023-05-13T21:44:02.220Z,13.28
2023-05-13T21:46:28.979Z,13.39
2023-05-13T21:48:55.921Z,13.48
2023-05-13T21:51:22.648Z,13.40
2023-05-13T21:53:49.302Z,13.42
2023-05-13T21:56:15.944Z,13.41
2023-05-13T21:58:42.665Z,13.42
2023-05-13T22:01:09.438Z,13.32
2023-05-13T22:03:36.125Z,13.37
2023-05-13T22:06:03.162Z,13.32
2023-05-13T22:08:30.293Z,12.83
2023-05-13T22:10:57.749Z,13.40
2023-05-13T22:13:25.671Z,13.40
2023-05-13T22:15:52.470Z,13.36
2023-05-13T22:18:19.365Z,13.31
2023-05-13T22:20:46.390Z,13.30
2023-05-13T22:23:13.059Z,13.25
2023-05-13T22:25:39.863Z,13.18
2023-05-13T22:28:06.638Z,13.34
2023-05-13T22:30:33.225Z,13.33
2023-05-13T22:32:59.852Z,13.23
2023-05-13T22:35:28.893Z,13.18
2023-05-13T22:37:55.570Z,13.36
2023-05-13T22:40:22.884Z,13.37
2023-05-13T22:42:49.672Z,13.31
2023-05-13T22:45:16.312Z,13.25
2023-05-13T22:47:42.912Z,13.30
2023-05-13T22:50:09.929Z,13.21
2023-05-13T22:52:36.526Z,13.28
2023-05-13T22:55:03.275Z,13.30
2023-05-13T22:57:29.901Z,13.30
2023-05-13T22:59:56.515Z,13.36
2023-05-13T23:02:23.700Z,13.31
2023-05-13T23:04:50.428Z,13.26
2023-05-13T23:07:17.049Z,13.29
2023-05-13T23:09:43.975Z,13.19
2023-05-13T23:12:10.698Z,13.22
2023-05-13T23:14:37.300Z,12.86
2023-05-13T23:17:04.081Z,13.10
2023-05-13T23:19:30.801Z,13.26
2023-05-13T23:21:57.679Z,13.08
2023-05-13T23:24:24.371Z,13.05
2023-05-13T23:26:51.074Z,13.13
2023-05-13T23:29:17.786Z,13.15
2023-05-13T23:31:44.613Z,13.03
2023-05-13T23:34:11.336Z,13.04
2023-05-13T23:36:37.938Z,13.01
2023-05-13T23:39:04.664Z,13.00
2023-05-13T23:41:31.257Z,13.09
2023-05-13T23:43:57.856Z,13.01
2023-05-13T23:46:24.651Z,13.07
2023-05-13T23:48:51.387Z,13.05
2023-05-13T23:51:18.089Z,12.99
2023-05-13T23:53:44.799Z,13.05
2023-05-13T23:56:11.403Z,12.98
2023-05-13T23:58:38.064Z,12.94
